sensor_id;sensor_type;location;lat;lon;timestamp;P1;durP1;ratioP1;P2;durP2;ratioP2
7653;SDS011;3869;48.406;10.774;2022-11-03T00:01:32;9.30;;;1.53;;
7653;SDS011;3869;48.406;10.774;2022-11-03T00:04:01;1.40;;;1.20;;
7653;SDS011;3869;48.406;10.774;2022-11-03T00:06:29;0.70;;;0.70;;
7653;SDS011;3869;48.406;10.774;2022-11-03T00:08:58;1.23;;;1.20;;
7653;SDS011;3869;48.406;10.774;2022-11-03T00:11:26;1.07;;;1.07;;
7653;SDS011;3869;48.406;10.774;2022-11-03T00:13:55;0.73;;;0.73;;
7653;SDS011;3869;48.406;10.774;2022-11-03T00:16:23;0.63;;;0.63;;
7653;SDS011;3869;48.406;10.774;2022-11-03T00:18:52;1.37;;;1.27;;
7653;SDS011;3869;48.406;10.774;2022-11-03T00:21:20;0.53;;;0.53;;
7653;SDS011;3869;48.406;10.774;2022-11-03T00:23:48;0.67;;;0.67;;
7653;SDS011;3869;48.406;10.774;2022-11-03T00:26:18;0.77;;;0.77;;
7653;SDS011;3869;48.406;10.774;2022-11-03T00:28:48;0.67;;;0.67;;
7653;SDS011;3869;48.406;10.774;2022-11-03T00:31:18;1.07;;;0.87;;
7653;SDS011;3869;48.406;10.774;2022-11-03T00:33:47;0.73;;;0.73;;
7653;SDS011;3869;48.406;10.774;2022-11-03T00:36:15;1.27;;;0.97;;
7653;SDS011;3869;48.406;10.774;2022-11-03T00:38:45;0.93;;;0.93;;
7653;SDS011;3869;48.406;10.774;2022-11-03T00:41:14;1.37;;;1.23;;
7653;SDS011;3869;48.406;10.774;2022-11-03T00:43:44;0.77;;;0.77;;
7653;SDS011;3869;48.406;10.774;2022-11-03T00:46:12;1.37;;;1.00;;
7653;SDS011;3869;48.406;10.774;2022-11-03T00:48:40;1.20;;;1.20;;
7653;SDS011;3869;48.406;10.774;2022-11-03T00:51:09;0.80;;;0.80;;
7653;SDS011;3869;48.406;10.774;2022-11-03T00:53:39;1.53;;;1.03;;
7653;SDS011;3869;48.406;10.774;2022-11-03T00:56:09;0.70;;;0.70;;
7653;SDS011;3869;48.406;10.774;2022-11-03T00:58:39;0.87;;;0.87;;
7653;SDS011;3869;48.406;10.774;2022-11-03T01:01:10;10.47;;;1.17;;
7653;SDS011;3869;48.406;10.774;2022-11-03T01:03:40;1.60;;;1.50;;
7653;SDS011;3869;48.406;10.774;2022-11-03T01:06:30;1.00;;;0.70;;
7653;SDS011;3869;48.406;10.774;2022-11-03T01:09:19;0.97;;;0.80;;
7653;SDS011;3869;48.406;10.774;2022-11-03T01:11:51;1.23;;;1.13;;
7653;SDS011;3869;48.406;10.774;2022-11-03T01:14:23;0.63;;;0.63;;
7653;SDS011;3869;48.406;10.774;2022-11-03T01:16:53;0.60;;;0.60;;
7653;SDS011;3869;48.406;10.774;2022-11-03T01:19:22;0.97;;;0.97;;
7653;SDS011;3869;48.406;10.774;2022-11-03T01:21:51;0.50;;;0.50;;
7653;SDS011;3869;48.406;10.774;2022-11-03T01:24:19;1.10;;;1.10;;
7653;SDS011;3869;48.406;10.774;2022-11-03T01:26:47;3.00;;;1.10;;
7653;SDS011;3869;48.406;10.774;2022-11-03T01:29:15;0.70;;;0.70;;
7653;SDS011;3869;48.406;10.774;2022-11-03T01:31:44;0.70;;;0.70;;
7653;SDS011;3869;48.406;10.774;2022-11-03T01:34:14;2.10;;;0.67;;
7653;SDS011;3869;48.406;10.774;2022-11-03T01:36:42;1.47;;;1.20;;
7653;SDS011;3869;48.406;10.774;2022-11-03T01:39:11;0.50;;;0.50;;
7653;SDS011;3869;48.406;10.774;2022-11-03T01:41:40;0.60;;;0.60;;
7653;SDS011;3869;48.406;10.774;2022-11-03T01:44:22;0.73;;;0.73;;
7653;SDS011;3869;48.406;10.774;2022-11-03T01:46:58;0.90;;;0.90;;
7653;SDS011;3869;48.406;10.774;2022-11-03T01:49:35;0.40;;;0.40;;
7653;SDS011;3869;48.406;10.774;2022-11-03T01:52:09;0.60;;;0.60;;
7653;SDS011;3869;48.406;10.774;2022-11-03T01:54:41;0.50;;;0.50;;
7653;SDS011;3869;48.406;10.774;2022-11-03T01:57:13;0.70;;;0.70;;
7653;SDS011;3869;48.406;10.774;2022-11-03T01:59:45;0.60;;;0.60;;
7653;SDS011;3869;48.406;10.774;2022-11-03T02:02:14;2.10;;;1.27;;
7653;SDS011;3869;48.406;10.774;2022-11-03T02:04:44;0.50;;;0.50;;
7653;SDS011;3869;48.406;10.774;2022-11-03T02:07:14;0.77;;;0.77;;
7653;SDS011;3869;48.406;10.774;2022-11-03T02:09:48;0.83;;;0.83;;
7653;SDS011;3869;48.406;10.774;2022-11-03T02:12:17;0.50;;;0.50;;
7653;SDS011;3869;48.406;10.774;2022-11-03T02:14:48;1.43;;;1.33;;
7653;SDS011;3869;48.406;10.774;2022-11-03T02:17:20;0.90;;;0.90;;
7653;SDS011;3869;48.406;10.774;2022-11-03T02:19:52;0.50;;;0.50;;
7653;SDS011;3869;48.406;10.774;2022-11-03T02:25:34;0.80;;;0.80;;
7653;SDS011;3869;48.406;10.774;2022-11-03T02:28:04;0.43;;;0.43;;
7653;SDS011;3869;48.406;10.774;2022-11-03T02:30:33;0.50;;;0.50;;
7653;SDS011;3869;48.406;10.774;2022-11-03T02:33:08;0.70;;;0.70;;
7653;SDS011;3869;48.406;10.774;2022-11-03T02:35:44;0.90;;;0.90;;
7653;SDS011;3869;48.406;10.774;2022-11-03T02:38:18;0.97;;;0.70;;
7653;SDS011;3869;48.406;10.774;2022-11-03T02:40:50;0.70;;;0.70;;
7653;SDS011;3869;48.406;10.774;2022-11-03T02:43:21;1.67;;;0.80;;
7653;SDS011;3869;48.406;10.774;2022-11-03T02:45:50;1.13;;;1.00;;
7653;SDS011;3869;48.406;10.774;2022-11-03T02:48:20;0.83;;;0.83;;
7653;SDS011;3869;48.406;10.774;2022-11-03T02:50:48;0.50;;;0.50;;
7653;SDS011;3869;48.406;10.774;2022-11-03T02:53:16;0.70;;;0.70;;
7653;SDS011;3869;48.406;10.774;2022-11-03T02:55:45;1.87;;;0.57;;
7653;SDS011;3869;48.406;10.774;2022-11-03T02:58:21;0.70;;;0.70;;
7653;SDS011;3869;48.406;10.774;2022-11-03T03:00:57;0.50;;;0.50;;
7653;SDS011;3869;48.406;10.774;2022-11-03T03:03:29;0.50;;;0.50;;
7653;SDS011;3869;48.406;10.774;2022-11-03T03:06:02;0.63;;;0.63;;
7653;SDS011;3869;48.406;10.774;2022-11-03T03:08:33;0.87;;;0.87;;
7653;SDS011;3869;48.406;10.774;2022-11-03T03:11:06;0.60;;;0.60;;
7653;SDS011;3869;48.406;10.774;2022-11-03T03:13:37;0.73;;;0.73;;
7653;SDS011;3869;48.406;10.774;2022-11-03T03:16:09;1.03;;;1.03;;
7653;SDS011;3869;48.406;10.774;2022-11-03T03:18:45;0.70;;;0.70;;
7653;SDS011;3869;48.406;10.774;2022-11-03T03:21:18;0.80;;;0.80;;
7653;SDS011;3869;48.406;10.774;2022-11-03T03:23:50;0.90;;;0.60;;
7653;SDS011;3869;48.406;10.774;2022-11-03T03:26:25;1.33;;;0.80;;
7653;SDS011;3869;48.406;10.774;2022-11-03T03:28:56;2.10;;;0.70;;
7653;SDS011;3869;48.406;10.774;2022-11-03T03:31:28;0.63;;;0.63;;
7653;SDS011;3869;48.406;10.774;2022-11-03T03:34:01;0.40;;;0.40;;
7653;SDS011;3869;48.406;10.774;2022-11-03T03:36:50;0.40;;;0.40;;
7653;SDS011;3869;48.406;10.774;2022-11-03T03:39:20;0.70;;;0.60;;
7653;SDS011;3869;48.406;10.774;2022-11-03T03:41:54;0.97;;;0.97;;
7653;SDS011;3869;48.406;10.774;2022-11-03T03:44:24;0.50;;;0.50;;
7653;SDS011;3869;48.406;10.774;2022-11-03T03:46:54;0.60;;;0.60;;
7653;SDS011;3869;48.406;10.774;2022-11-03T03:49:26;4.00;;;1.23;;
7653;SDS011;3869;48.406;10.774;2022-11-03T03:51:54;1.40;;;0.80;;
7653;SDS011;3869;48.406;10.774;2022-11-03T03:54:22;0.80;;;0.80;;
7653;SDS011;3869;48.406;10.774;2022-11-03T03:56:50;0.63;;;0.63;;
7653;SDS011;3869;48.406;10.774;2022-11-03T03:59:24;0.60;;;0.60;;
7653;SDS011;3869;48.406;10.774;2022-11-03T04:01:52;0.70;;;0.70;;
7653;SDS011;3869;48.406;10.774;2022-11-03T04:04:20;0.50;;;0.50;;
7653;SDS011;3869;48.406;10.774;2022-11-03T04:06:48;0.50;;;0.50;;
7653;SDS011;3869;48.406;10.774;2022-11-03T04:09:36;0.60;;;0.60;;
7653;SDS011;3869;48.406;10.774;2022-11-03T04:12:06;0.70;;;0.70;;
7653;SDS011;3869;48.406;10.774;2022-11-03T04:14:51;1.07;;;0.90;;
7653;SDS011;3869;48.406;10.774;2022-11-03T04:17:49;0.90;;;0.90;;
7653;SDS011;3869;48.406;10.774;2022-11-03T04:20:35;0.57;;;0.57;;
7653;SDS011;3869;48.406;10.774;2022-11-03T04:23:21;0.97;;;0.97;;
7653;SDS011;3869;48.406;10.774;2022-11-03T04:25:50;1.57;;;1.47;;
7653;SDS011;3869;48.406;10.774;2022-11-03T04:28:23;0.40;;;0.40;;
7653;SDS011;3869;48.406;10.774;2022-11-03T04:30:53;0.50;;;0.50;;
7653;SDS011;3869;48.406;10.774;2022-11-03T04:33:24;0.90;;;0.90;;
7653;SDS011;3869;48.406;10.774;2022-11-03T04:35:53;0.63;;;0.60;;
7653;SDS011;3869;48.406;10.774;2022-11-03T04:38:24;1.00;;;1.00;;
7653;SDS011;3869;48.406;10.774;2022-11-03T04:40:54;2.20;;;0.97;;
7653;SDS011;3869;48.406;10.774;2022-11-03T04:43:30;0.70;;;0.70;;
7653;SDS011;3869;48.406;10.774;2022-11-03T04:46:01;0.73;;;0.73;;
7653;SDS011;3869;48.406;10.774;2022-11-03T04:48:29;2.33;;;1.00;;
7653;SDS011;3869;48.406;10.774;2022-11-03T04:50:57;2.23;;;1.33;;
7653;SDS011;3869;48.406;10.774;2022-11-03T04:53:27;0.67;;;0.67;;
7653;SDS011;3869;48.406;10.774;2022-11-03T04:55:58;0.67;;;0.67;;
7653;SDS011;3869;48.406;10.774;2022-11-03T04:58:34;1.20;;;1.10;;
7653;SDS011;3869;48.406;10.774;2022-11-03T05:01:03;0.97;;;0.97;;
7653;SDS011;3869;48.406;10.774;2022-11-03T05:03:33;2.27;;;2.07;;
7653;SDS011;3869;48.406;10.774;2022-11-03T05:06:07;2.03;;;1.93;;
7653;SDS011;3869;48.406;10.774;2022-11-03T05:08:37;0.90;;;0.90;;
7653;SDS011;3869;48.406;10.774;2022-11-03T05:11:10;0.50;;;0.50;;
7653;SDS011;3869;48.406;10.774;2022-11-03T05:13:47;1.27;;;1.17;;
7653;SDS011;3869;48.406;10.774;2022-11-03T05:16:16;0.50;;;0.50;;
7653;SDS011;3869;48.406;10.774;2022-11-03T05:18:45;0.50;;;0.50;;
7653;SDS011;3869;48.406;10.774;2022-11-03T05:21:17;1.93;;;1.83;;
7653;SDS011;3869;48.406;10.774;2022-11-03T05:23:48;0.90;;;0.90;;
7653;SDS011;3869;48.406;10.774;2022-11-03T05:26:19;0.70;;;0.70;;
7653;SDS011;3869;48.406;10.774;2022-11-03T05:28:52;0.80;;;0.80;;
7653;SDS011;3869;48.406;10.774;2022-11-03T05:31:25;0.83;;;0.83;;
7653;SDS011;3869;48.406;10.774;2022-11-03T05:33:55;1.60;;;1.10;;
7653;SDS011;3869;48.406;10.774;2022-11-03T05:36:25;1.00;;;1.00;;
7653;SDS011;3869;48.406;10.774;2022-11-03T05:38:57;0.83;;;0.83;;
7653;SDS011;3869;48.406;10.774;2022-11-03T05:41:28;2.00;;;1.20;;
7653;SDS011;3869;48.406;10.774;2022-11-03T05:43:58;0.77;;;0.73;;
7653;SDS011;3869;48.406;10.774;2022-11-03T05:46:29;0.60;;;0.60;;
7653;SDS011;3869;48.406;10.774;2022-11-03T05:49:00;0.60;;;0.60;;
7653;SDS011;3869;48.406;10.774;2022-11-03T05:51:31;1.33;;;1.20;;
7653;SDS011;3869;48.406;10.774;2022-11-03T05:54:01;19.27;;;1.63;;
7653;SDS011;3869;48.406;10.774;2022-11-03T05:56:33;2.10;;;0.80;;
7653;SDS011;3869;48.406;10.774;2022-11-03T05:59:03;0.90;;;0.90;;
7653;SDS011;3869;48.406;10.774;2022-11-03T06:01:32;2.10;;;1.47;;
7653;SDS011;3869;48.406;10.774;2022-11-03T06:04:05;1.73;;;1.63;;
7653;SDS011;3869;48.406;10.774;2022-11-03T06:06:45;1.37;;;1.37;;
7653;SDS011;3869;48.406;10.774;2022-11-03T06:09:17;1.30;;;1.00;;
7653;SDS011;3869;48.406;10.774;2022-11-03T06:11:47;1.33;;;1.23;;
7653;SDS011;3869;48.406;10.774;2022-11-03T06:14:18;4.10;;;1.47;;
7653;SDS011;3869;48.406;10.774;2022-11-03T06:16:50;0.83;;;0.83;;
7653;SDS011;3869;48.406;10.774;2022-11-03T06:19:21;0.60;;;0.60;;
7653;SDS011;3869;48.406;10.774;2022-11-03T06:21:54;0.67;;;0.67;;
7653;SDS011;3869;48.406;10.774;2022-11-03T06:24:25;0.87;;;0.87;;
7653;SDS011;3869;48.406;10.774;2022-11-03T06:26:56;1.17;;;1.17;;
7653;SDS011;3869;48.406;10.774;2022-11-03T06:29:27;1.00;;;0.97;;
7653;SDS011;3869;48.406;10.774;2022-11-03T06:31:58;1.63;;;1.53;;
7653;SDS011;3869;48.406;10.774;2022-11-03T06:34:32;1.87;;;1.67;;
7653;SDS011;3869;48.406;10.774;2022-11-03T06:37:13;1.93;;;0.90;;
7653;SDS011;3869;48.406;10.774;2022-11-03T06:39:46;0.70;;;0.70;;
7653;SDS011;3869;48.406;10.774;2022-11-03T06:42:15;1.10;;;1.10;;
7653;SDS011;3869;48.406;10.774;2022-11-03T06:44:49;0.70;;;0.70;;
7653;SDS011;3869;48.406;10.774;2022-11-03T06:47:19;1.43;;;1.43;;
7653;SDS011;3869;48.406;10.774;2022-11-03T06:49:49;1.30;;;0.90;;
7653;SDS011;3869;48.406;10.774;2022-11-03T06:52:25;2.30;;;0.87;;
7653;SDS011;3869;48.406;10.774;2022-11-03T06:54:58;1.20;;;1.20;;
7653;SDS011;3869;48.406;10.774;2022-11-03T06:57:41;0.63;;;0.63;;
7653;SDS011;3869;48.406;10.774;2022-11-03T07:00:14;1.10;;;1.10;;
7653;SDS011;3869;48.406;10.774;2022-11-03T07:03:00;1.07;;;0.83;;
7653;SDS011;3869;48.406;10.774;2022-11-03T07:05:34;1.30;;;1.23;;
7653;SDS011;3869;48.406;10.774;2022-11-03T07:08:03;0.97;;;0.97;;
7653;SDS011;3869;48.406;10.774;2022-11-03T07:10:42;0.60;;;0.60;;
7653;SDS011;3869;48.406;10.774;2022-11-03T07:13:12;0.97;;;0.97;;
7653;SDS011;3869;48.406;10.774;2022-11-03T07:15:43;0.73;;;0.73;;
7653;SDS011;3869;48.406;10.774;2022-11-03T07:18:13;1.93;;;1.83;;
7653;SDS011;3869;48.406;10.774;2022-11-03T07:20:46;0.70;;;0.70;;
7653;SDS011;3869;48.406;10.774;2022-11-03T07:23:15;0.93;;;0.90;;
7653;SDS011;3869;48.406;10.774;2022-11-03T07:25:47;1.53;;;1.43;;
7653;SDS011;3869;48.406;10.774;2022-11-03T07:28:20;0.63;;;0.63;;
7653;SDS011;3869;48.406;10.774;2022-11-03T07:30:52;1.23;;;1.20;;
7653;SDS011;3869;48.406;10.774;2022-11-03T07:33:20;0.67;;;0.67;;
7653;SDS011;3869;48.406;10.774;2022-11-03T07:35:51;1.10;;;1.10;;
7653;SDS011;3869;48.406;10.774;2022-11-03T07:38:40;2.67;;;1.50;;
7653;SDS011;3869;48.406;10.774;2022-11-03T07:41:10;1.00;;;1.00;;
7653;SDS011;3869;48.406;10.774;2022-11-03T07:43:45;1.00;;;0.67;;
7653;SDS011;3869;48.406;10.774;2022-11-03T07:46:21;1.00;;;1.00;;
7653;SDS011;3869;48.406;10.774;2022-11-03T07:48:51;0.70;;;0.70;;
7653;SDS011;3869;48.406;10.774;2022-11-03T07:51:22;0.63;;;0.63;;
7653;SDS011;3869;48.406;10.774;2022-11-03T07:53:52;1.57;;;1.47;;
7653;SDS011;3869;48.406;10.774;2022-11-03T07:56:24;1.20;;;1.20;;
7653;SDS011;3869;48.406;10.774;2022-11-03T07:58:53;0.83;;;0.83;;
7653;SDS011;3869;48.406;10.774;2022-11-03T08:01:28;1.20;;;1.00;;
7653;SDS011;3869;48.406;10.774;2022-11-03T08:03:59;1.40;;;1.30;;
7653;SDS011;3869;48.406;10.774;2022-11-03T08:06:30;0.90;;;0.90;;
7653;SDS011;3869;48.406;10.774;2022-11-03T08:08:58;1.60;;;1.50;;
7653;SDS011;3869;48.406;10.774;2022-11-03T08:11:26;1.17;;;1.17;;
7653;SDS011;3869;48.406;10.774;2022-11-03T08:13:55;1.13;;;1.10;;
7653;SDS011;3869;48.406;10.774;2022-11-03T08:16:23;0.90;;;0.90;;
7653;SDS011;3869;48.406;10.774;2022-11-03T08:18:53;0.73;;;0.73;;
7653;SDS011;3869;48.406;10.774;2022-11-03T08:21:21;1.73;;;1.63;;
7653;SDS011;3869;48.406;10.774;2022-11-03T08:23:49;2.13;;;2.03;;
7653;SDS011;3869;48.406;10.774;2022-11-03T08:26:17;0.60;;;0.60;;
7653;SDS011;3869;48.406;10.774;2022-11-03T08:28:45;0.90;;;0.90;;
7653;SDS011;3869;48.406;10.774;2022-11-03T08:31:13;0.73;;;0.73;;
7653;SDS011;3869;48.406;10.774;2022-11-03T08:33:41;2.20;;;1.00;;
7653;SDS011;3869;48.406;10.774;2022-11-03T08:36:10;1.60;;;1.50;;
7653;SDS011;3869;48.406;10.774;2022-11-03T08:38:39;1.43;;;1.37;;
7653;SDS011;3869;48.406;10.774;2022-11-03T08:41:07;2.23;;;1.67;;
7653;SDS011;3869;48.406;10.774;2022-11-03T08:43:35;1.67;;;1.57;;
7653;SDS011;3869;48.406;10.774;2022-11-03T08:46:03;1.00;;;1.00;;
7653;SDS011;3869;48.406;10.774;2022-11-03T08:48:42;1.73;;;1.63;;
7653;SDS011;3869;48.406;10.774;2022-11-03T08:51:11;1.00;;;1.00;;
7653;SDS011;3869;48.406;10.774;2022-11-03T08:53:40;0.90;;;0.90;;
7653;SDS011;3869;48.406;10.774;2022-11-03T08:56:09;8.00;;;1.97;;
7653;SDS011;3869;48.406;10.774;2022-11-03T08:58:40;1.30;;;1.20;;
7653;SDS011;3869;48.406;10.774;2022-11-03T09:01:08;1.50;;;1.40;;
7653;SDS011;3869;48.406;10.774;2022-11-03T09:03:36;0.90;;;0.90;;
7653;SDS011;3869;48.406;10.774;2022-11-03T09:06:05;1.37;;;1.27;;
7653;SDS011;3869;48.406;10.774;2022-11-03T09:08:34;1.53;;;1.23;;
7653;SDS011;3869;48.406;10.774;2022-11-03T09:11:22;2.83;;;1.03;;
7653;SDS011;3869;48.406;10.774;2022-11-03T09:13:50;1.27;;;1.20;;
7653;SDS011;3869;48.406;10.774;2022-11-03T09:16:18;1.70;;;1.43;;
7653;SDS011;3869;48.406;10.774;2022-11-03T09:18:46;8.83;;;1.50;;
7653;SDS011;3869;48.406;10.774;2022-11-03T09:21:14;2.37;;;2.13;;
7653;SDS011;3869;48.406;10.774;2022-11-03T09:23:43;1.63;;;1.53;;
7653;SDS011;3869;48.406;10.774;2022-11-03T09:26:11;2.67;;;2.20;;
7653;SDS011;3869;48.406;10.774;2022-11-03T09:28:39;1.23;;;1.17;;
7653;SDS011;3869;48.406;10.774;2022-11-03T09:31:07;2.10;;;1.90;;
7653;SDS011;3869;48.406;10.774;2022-11-03T09:33:35;2.17;;;2.07;;
7653;SDS011;3869;48.406;10.774;2022-11-03T09:36:03;1.63;;;1.53;;
7653;SDS011;3869;48.406;10.774;2022-11-03T09:38:31;1.70;;;1.20;;
7653;SDS011;3869;48.406;10.774;2022-11-03T09:41:00;1.53;;;1.53;;
7653;SDS011;3869;48.406;10.774;2022-11-03T09:43:44;1.13;;;1.03;;
7653;SDS011;3869;48.406;10.774;2022-11-03T09:46:13;1.03;;;1.03;;
7653;SDS011;3869;48.406;10.774;2022-11-03T09:48:43;0.90;;;0.90;;
7653;SDS011;3869;48.406;10.774;2022-11-03T09:51:13;1.77;;;1.47;;
7653;SDS011;3869;48.406;10.774;2022-11-03T09:53:44;2.30;;;1.60;;
7653;SDS011;3869;48.406;10.774;2022-11-03T09:56:14;0.70;;;0.70;;
7653;SDS011;3869;48.406;10.774;2022-11-03T09:58:44;1.73;;;1.63;;
7653;SDS011;3869;48.406;10.774;2022-11-03T10:01:19;1.23;;;1.13;;
7653;SDS011;3869;48.406;10.774;2022-11-03T10:03:47;0.97;;;0.97;;
7653;SDS011;3869;48.406;10.774;2022-11-03T10:06:15;1.10;;;1.10;;
7653;SDS011;3869;48.406;10.774;2022-11-03T10:08:43;1.23;;;0.80;;
7653;SDS011;3869;48.406;10.774;2022-11-03T10:11:12;1.50;;;1.40;;
7653;SDS011;3869;48.406;10.774;2022-11-03T10:13:42;1.60;;;1.40;;
7653;SDS011;3869;48.406;10.774;2022-11-03T10:16:14;1.77;;;1.67;;
7653;SDS011;3869;48.406;10.774;2022-11-03T10:18:45;1.90;;;1.80;;
7653;SDS011;3869;48.406;10.774;2022-11-03T10:21:13;3.90;;;1.97;;
7653;SDS011;3869;48.406;10.774;2022-11-03T10:23:43;0.80;;;0.80;;
7653;SDS011;3869;48.406;10.774;2022-11-03T10:26:12;2.10;;;2.00;;
7653;SDS011;3869;48.406;10.774;2022-11-03T10:28:57;1.43;;;1.10;;
7653;SDS011;3869;48.406;10.774;2022-11-03T10:31:30;1.37;;;1.27;;
7653;SDS011;3869;48.406;10.774;2022-11-03T10:34:00;1.30;;;1.30;;
7653;SDS011;3869;48.406;10.774;2022-11-03T10:36:28;1.77;;;1.47;;
7653;SDS011;3869;48.406;10.774;2022-11-03T10:38:57;1.63;;;1.53;;
7653;SDS011;3869;48.406;10.774;2022-11-03T10:41:27;1.80;;;1.70;;
7653;SDS011;3869;48.406;10.774;2022-11-03T10:44:01;3.90;;;1.80;;
7653;SDS011;3869;48.406;10.774;2022-11-03T10:46:33;1.33;;;1.23;;
7653;SDS011;3869;48.406;10.774;2022-11-03T10:49:16;1.57;;;1.50;;
7653;SDS011;3869;48.406;10.774;2022-11-03T10:51:46;1.83;;;1.73;;
7653;SDS011;3869;48.406;10.774;2022-11-03T10:54:17;1.07;;;0.97;;
7653;SDS011;3869;48.406;10.774;2022-11-03T10:56:46;2.07;;;1.97;;
7653;SDS011;3869;48.406;10.774;2022-11-03T10:59:18;1.30;;;1.20;;
7653;SDS011;3869;48.406;10.774;2022-11-03T11:01:48;1.90;;;1.80;;
7653;SDS011;3869;48.406;10.774;2022-11-03T11:04:17;1.77;;;1.67;;
7653;SDS011;3869;48.406;10.774;2022-11-03T11:06:47;3.60;;;2.10;;
7653;SDS011;3869;48.406;10.774;2022-11-03T11:09:16;3.80;;;1.33;;
7653;SDS011;3869;48.406;10.774;2022-11-03T11:12:03;5.53;;;2.93;;
7653;SDS011;3869;48.406;10.774;2022-11-03T11:14:35;1.73;;;1.40;;
7653;SDS011;3869;48.406;10.774;2022-11-03T11:17:10;3.90;;;1.73;;
7653;SDS011;3869;48.406;10.774;2022-11-03T11:20:16;1.73;;;1.70;;
7653;SDS011;3869;48.406;10.774;2022-11-03T11:22:54;1.30;;;1.30;;
7653;SDS011;3869;48.406;10.774;2022-11-03T11:28:32;1.10;;;1.10;;
7653;SDS011;3869;48.406;10.774;2022-11-03T11:31:00;1.20;;;1.20;;
7653;SDS011;3869;48.406;10.774;2022-11-03T11:33:50;1.87;;;1.67;;
7653;SDS011;3869;48.406;10.774;2022-11-03T11:40:02;1.70;;;1.60;;
7653;SDS011;3869;48.406;10.774;2022-11-03T11:49:13;0.83;;;0.83;;
7653;SDS011;3869;48.406;10.774;2022-11-03T11:51:43;1.93;;;1.83;;
7653;SDS011;3869;48.406;10.774;2022-11-03T11:54:14;1.43;;;1.33;;
7653;SDS011;3869;48.406;10.774;2022-11-03T11:56:45;3.10;;;1.70;;
7653;SDS011;3869;48.406;10.774;2022-11-03T11:59:15;1.00;;;1.00;;
7653;SDS011;3869;48.406;10.774;2022-11-03T12:01:51;1.20;;;1.20;;
7653;SDS011;3869;48.406;10.774;2022-11-03T12:04:21;1.43;;;1.30;;
7653;SDS011;3869;48.406;10.774;2022-11-03T12:06:53;3.23;;;1.80;;
7653;SDS011;3869;48.406;10.774;2022-11-03T12:09:24;2.00;;;1.90;;
7653;SDS011;3869;48.406;10.774;2022-11-03T12:11:54;1.93;;;1.73;;
7653;SDS011;3869;48.406;10.774;2022-11-03T12:14:31;3.33;;;1.67;;
7653;SDS011;3869;48.406;10.774;2022-11-03T12:19:59;1.10;;;1.03;;
7653;SDS011;3869;48.406;10.774;2022-11-03T12:22:40;2.93;;;1.67;;
7653;SDS011;3869;48.406;10.774;2022-11-03T12:25:33;1.20;;;1.20;;
7653;SDS011;3869;48.406;10.774;2022-11-03T12:28:02;2.30;;;1.80;;
7653;SDS011;3869;48.406;10.774;2022-11-03T12:30:31;2.20;;;1.77;;
7653;SDS011;3869;48.406;10.774;2022-11-03T12:33:05;2.13;;;2.00;;
7653;SDS011;3869;48.406;10.774;2022-11-03T12:35:33;3.30;;;2.27;;
7653;SDS011;3869;48.406;10.774;2022-11-03T12:38:01;2.63;;;1.67;;
7653;SDS011;3869;48.406;10.774;2022-11-03T12:40:29;2.43;;;1.53;;
7653;SDS011;3869;48.406;10.774;2022-11-03T12:42:58;2.03;;;1.93;;
7653;SDS011;3869;48.406;10.774;2022-11-03T12:45:26;2.50;;;1.80;;
7653;SDS011;3869;48.406;10.774;2022-11-03T12:47:54;2.30;;;1.83;;
7653;SDS011;3869;48.406;10.774;2022-11-03T12:50:22;2.70;;;1.80;;
7653;SDS011;3869;48.406;10.774;2022-11-03T12:52:50;2.43;;;1.53;;
7653;SDS011;3869;48.406;10.774;2022-11-03T12:55:18;2.10;;;2.00;;
7653;SDS011;3869;48.406;10.774;2022-11-03T12:57:46;2.00;;;1.90;;
7653;SDS011;3869;48.406;10.774;2022-11-03T13:00:16;2.90;;;2.50;;
7653;SDS011;3869;48.406;10.774;2022-11-03T13:02:44;2.80;;;2.60;;
7653;SDS011;3869;48.406;10.774;2022-11-03T13:05:12;1.67;;;1.57;;
7653;SDS011;3869;48.406;10.774;2022-11-03T13:07:40;1.80;;;1.70;;
7653;SDS011;3869;48.406;10.774;2022-11-03T13:10:08;1.63;;;1.53;;
7653;SDS011;3869;48.406;10.774;2022-11-03T13:12:37;5.80;;;2.10;;
7653;SDS011;3869;48.406;10.774;2022-11-03T13:15:07;15.43;;;3.00;;
7653;SDS011;3869;48.406;10.774;2022-11-03T13:17:40;1.90;;;1.80;;
7653;SDS011;3869;48.406;10.774;2022-11-03T13:20:28;3.37;;;1.97;;
7653;SDS011;3869;48.406;10.774;2022-11-03T13:22:56;2.80;;;2.60;;
7653;SDS011;3869;48.406;10.774;2022-11-03T13:25:24;2.37;;;2.17;;
7653;SDS011;3869;48.406;10.774;2022-11-03T13:27:54;2.10;;;2.00;;
7653;SDS011;3869;48.406;10.774;2022-11-03T13:30:22;2.20;;;2.00;;
7653;SDS011;3869;48.406;10.774;2022-11-03T13:32:53;1.70;;;1.60;;
7653;SDS011;3869;48.406;10.774;2022-11-03T13:35:21;2.40;;;2.20;;
7653;SDS011;3869;48.406;10.774;2022-11-03T13:37:49;2.43;;;2.10;;
7653;SDS011;3869;48.406;10.774;2022-11-03T13:40:17;2.10;;;2.00;;
7653;SDS011;3869;48.406;10.774;2022-11-03T13:43:05;4.80;;;2.57;;
7653;SDS011;3869;48.406;10.774;2022-11-03T13:45:34;2.47;;;2.37;;
7653;SDS011;3869;48.406;10.774;2022-11-03T13:48:03;2.37;;;2.27;;
7653;SDS011;3869;48.406;10.774;2022-11-03T13:50:52;1.70;;;1.40;;
7653;SDS011;3869;48.406;10.774;2022-11-03T13:53:21;3.03;;;2.10;;
7653;SDS011;3869;48.406;10.774;2022-11-03T13:56:09;1.60;;;1.03;;
7653;SDS011;3869;48.406;10.774;2022-11-03T13:58:46;1.43;;;1.30;;
7653;SDS011;3869;48.406;10.774;2022-11-03T14:01:34;2.00;;;1.90;;
7653;SDS011;3869;48.406;10.774;2022-11-03T14:04:04;3.13;;;2.03;;
7653;SDS011;3869;48.406;10.774;2022-11-03T14:06:52;9.00;;;1.63;;
7653;SDS011;3869;48.406;10.774;2022-11-03T14:09:20;1.63;;;1.63;;
7653;SDS011;3869;48.406;10.774;2022-11-03T14:11:48;2.07;;;1.90;;
7653;SDS011;3869;48.406;10.774;2022-11-03T14:14:34;1.63;;;1.53;;
7653;SDS011;3869;48.406;10.774;2022-11-03T14:17:02;4.10;;;2.60;;
7653;SDS011;3869;48.406;10.774;2022-11-03T14:19:31;2.50;;;2.30;;
7653;SDS011;3869;48.406;10.774;2022-11-03T14:22:09;6.20;;;2.63;;
7653;SDS011;3869;48.406;10.774;2022-11-03T14:24:37;2.90;;;2.70;;
7653;SDS011;3869;48.406;10.774;2022-11-03T14:27:04;1.60;;;1.60;;
7653;SDS011;3869;48.406;10.774;2022-11-03T14:29:32;2.57;;;2.37;;
7653;SDS011;3869;48.406;10.774;2022-11-03T14:32:00;6.33;;;2.70;;
7653;SDS011;3869;48.406;10.774;2022-11-03T14:34:28;4.50;;;2.80;;
7653;SDS011;3869;48.406;10.774;2022-11-03T14:36:58;2.23;;;1.87;;
7653;SDS011;3869;48.406;10.774;2022-11-03T14:39:26;2.70;;;2.17;;
7653;SDS011;3869;48.406;10.774;2022-11-03T14:41:54;2.20;;;2.10;;
7653;SDS011;3869;48.406;10.774;2022-11-03T14:44:30;2.67;;;2.47;;
7653;SDS011;3869;48.406;10.774;2022-11-03T14:46:59;1.90;;;1.80;;
7653;SDS011;3869;48.406;10.774;2022-11-03T14:49:28;1.83;;;1.73;;
7653;SDS011;3869;48.406;10.774;2022-11-03T14:51:58;2.17;;;1.97;;
7653;SDS011;3869;48.406;10.774;2022-11-03T14:54:27;2.27;;;1.90;;
7653;SDS011;3869;48.406;10.774;2022-11-03T14:56:56;3.13;;;2.83;;
7653;SDS011;3869;48.406;10.774;2022-11-03T14:59:24;2.23;;;2.10;;
7653;SDS011;3869;48.406;10.774;2022-11-03T15:01:52;2.33;;;2.23;;
7653;SDS011;3869;48.406;10.774;2022-11-03T15:04:21;7.23;;;2.80;;
7653;SDS011;3869;48.406;10.774;2022-11-03T15:06:49;2.13;;;2.00;;
7653;SDS011;3869;48.406;10.774;2022-11-03T15:09:18;2.43;;;2.23;;
7653;SDS011;3869;48.406;10.774;2022-11-03T15:11:46;4.47;;;2.83;;
7653;SDS011;3869;48.406;10.774;2022-11-03T15:14:14;4.17;;;2.60;;
7653;SDS011;3869;48.406;10.774;2022-11-03T15:16:42;6.23;;;2.80;;
7653;SDS011;3869;48.406;10.774;2022-11-03T15:19:11;3.57;;;3.33;;
7653;SDS011;3869;48.406;10.774;2022-11-03T15:21:39;3.10;;;2.90;;
7653;SDS011;3869;48.406;10.774;2022-11-03T15:24:07;4.87;;;2.50;;
7653;SDS011;3869;48.406;10.774;2022-11-03T15:26:57;3.53;;;2.63;;
7653;SDS011;3869;48.406;10.774;2022-11-03T15:29:25;2.57;;;2.37;;
7653;SDS011;3869;48.406;10.774;2022-11-03T15:31:52;3.23;;;3.03;;
7653;SDS011;3869;48.406;10.774;2022-11-03T15:34:20;4.67;;;3.00;;
7653;SDS011;3869;48.406;10.774;2022-11-03T15:36:48;5.77;;;4.27;;
7653;SDS011;3869;48.406;10.774;2022-11-03T15:39:16;5.37;;;4.03;;
7653;SDS011;3869;48.406;10.774;2022-11-03T15:41:44;10.03;;;4.50;;
7653;SDS011;3869;48.406;10.774;2022-11-03T15:44:13;8.30;;;4.07;;
7653;SDS011;3869;48.406;10.774;2022-11-03T15:46:41;4.30;;;3.00;;